createdAt,value
2022-12-13T00:02:25.796Z,5.63
2022-12-13T00:04:52.174Z,5.60
2022-12-13T00:07:18.497Z,6.10
2022-12-13T00:09:44.846Z,5.63
2022-12-13T00:12:11.271Z,5.93
2022-12-13T00:14:37.655Z,5.68
2022-12-13T00:17:04.058Z,5.25
2022-12-13T00:19:30.417Z,5.47
2022-12-13T00:21:56.935Z,5.80
2022-12-13T00:24:23.294Z,5.43
2022-12-13T00:26:49.716Z,6.80
2022-12-13T00:29:16.089Z,6.00
2022-12-13T00:34:29.113Z,6.30
2022-12-13T00:36:55.950Z,6.00
2022-12-13T00:39:22.455Z,6.38
2022-12-13T00:41:48.784Z,6.13
2022-12-13T00:44:15.200Z,6.03
2022-12-13T00:46:41.986Z,5.65
2022-12-13T00:49:10.370Z,6.45
2022-12-13T00:51:36.820Z,5.97
2022-12-13T00:54:03.228Z,5.90
2022-12-13T00:56:30.882Z,5.47
2022-12-13T01:01:25.691Z,5.47
2022-12-13T01:03:56.592Z,5.40
2022-12-13T01:06:26.043Z,5.57
2022-12-13T01:08:52.732Z,5.40
2022-12-13T01:11:19.233Z,5.60
2022-12-13T01:13:45.936Z,6.43
2022-12-13T01:16:12.928Z,5.40
2022-12-13T01:18:39.764Z,6.78
2022-12-13T01:21:07.456Z,5.07
2022-12-13T01:26:04.444Z,5.60
2022-12-13T01:28:31.264Z,5.78
2022-12-13T01:30:59.156Z,5.82
2022-12-13T01:33:25.854Z,6.20
2022-12-13T01:35:52.526Z,6.38
2022-12-13T01:38:19.168Z,5.70
2022-12-13T01:40:46.493Z,5.70
2022-12-13T01:43:14.405Z,6.57
2022-12-13T01:45:41.508Z,6.32
2022-12-13T01:48:12.006Z,5.88
2022-12-13T01:50:41.592Z,5.70
2022-12-13T01:53:08.929Z,5.78
2022-12-13T01:55:41.810Z,6.53
2022-12-13T01:58:08.529Z,5.63
2022-12-13T02:00:35.945Z,5.30
2022-12-13T02:03:02.561Z,5.88
2022-12-13T02:05:51.318Z,6.53
2022-12-13T02:08:19.442Z,6.30
2022-12-13T02:10:46.123Z,5.57
2022-12-13T02:13:12.761Z,5.95
2022-12-13T02:15:54.366Z,5.82
2022-12-13T02:18:35.217Z,6.40
2022-12-13T02:21:10.734Z,6.15
2022-12-13T02:23:37.050Z,6.30
2022-12-13T02:26:14.621Z,5.45
2022-12-13T02:28:44.085Z,5.88
2022-12-13T02:31:13.390Z,6.57
2022-12-13T02:33:45.897Z,6.93
2022-12-13T02:36:29.153Z,6.68
2022-12-13T02:39:08.838Z,6.15
2022-12-13T02:41:37.841Z,6.07
2022-12-13T02:44:22.641Z,6.45
2022-12-13T02:46:53.094Z,5.65
2022-12-13T02:49:19.835Z,6.47
2022-12-13T02:51:47.041Z,5.45
2022-12-13T02:54:13.419Z,5.60
2022-12-13T02:56:39.753Z,5.78
2022-12-13T02:59:11.201Z,5.85
2022-12-13T03:02:09.487Z,6.55
2022-12-13T03:05:02.989Z,6.03
2022-12-13T03:07:33.637Z,6.20
2022-12-13T03:10:05.769Z,6.25
2022-12-13T03:13:00.268Z,6.30
2022-12-13T03:15:35.775Z,6.38
2022-12-13T03:18:15.285Z,5.78
2022-12-13T03:21:01.019Z,6.07
2022-12-13T03:23:27.713Z,5.97
2022-12-13T03:25:59.577Z,6.30
2022-12-13T03:28:25.950Z,5.60
2022-12-13T03:30:52.326Z,6.15
2022-12-13T03:33:18.793Z,6.40
2022-12-13T03:35:46.015Z,5.55
2022-12-13T03:38:22.593Z,5.85
2022-12-13T03:41:00.524Z,5.80
2022-12-13T03:43:27.178Z,5.80
2022-12-13T03:45:54.239Z,6.40
2022-12-13T03:48:22.733Z,5.82
2022-12-13T03:50:50.717Z,5.70
2022-12-13T03:53:22.632Z,5.97
2022-12-13T03:56:00.698Z,5.72
2022-12-13T03:58:27.496Z,6.50
2022-12-13T04:01:03.555Z,5.88
2022-12-13T04:03:29.928Z,5.50
2022-12-13T04:05:56.287Z,5.43
2022-12-13T04:08:22.837Z,6.03
2022-12-13T04:10:49.184Z,6.18
2022-12-13T04:13:33.662Z,6.35
2022-12-13T04:16:00.884Z,6.72
2022-12-13T04:18:27.357Z,6.03
2022-12-13T04:20:53.769Z,6.13
2022-12-13T04:23:20.117Z,6.05
2022-12-13T04:25:46.605Z,5.65
2022-12-13T04:28:12.949Z,5.55
2022-12-13T04:30:48.763Z,5.63
2022-12-13T04:33:21.118Z,6.15
2022-12-13T04:35:48.025Z,6.68
2022-12-13T04:38:14.444Z,6.10
2022-12-13T04:40:40.781Z,6.28
2022-12-13T04:43:07.178Z,5.78
2022-12-13T04:45:33.893Z,6.47
2022-12-13T04:48:00.320Z,6.22
2022-12-13T04:50:26.690Z,6.13
2022-12-13T04:52:53.041Z,5.80
2022-12-13T04:55:19.377Z,6.00
2022-12-13T04:57:45.737Z,6.63
2022-12-13T05:00:13.334Z,5.45
2022-12-13T05:02:41.363Z,5.47
2022-12-13T05:05:08.625Z,5.97
2022-12-13T05:07:35.018Z,5.75
2022-12-13T05:12:35.116Z,5.60
2022-12-13T05:15:01.438Z,5.40
2022-12-13T05:17:27.815Z,6.40
2022-12-13T05:19:54.237Z,6.45
2022-12-13T05:22:21.316Z,6.25
2022-12-13T05:24:48.078Z,6.05
2022-12-13T05:27:25.356Z,6.35
2022-12-13T05:30:03.409Z,6.05
2022-12-13T05:32:42.726Z,5.65
2022-12-13T05:35:11.072Z,6.22
2022-12-13T05:37:37.420Z,6.60
2022-12-13T05:40:04.043Z,6.22
2022-12-13T05:42:30.405Z,6.18
2022-12-13T05:44:56.735Z,6.18
2022-12-13T05:47:23.069Z,6.45
2022-12-13T05:49:49.402Z,6.10
2022-12-13T05:52:19.436Z,5.88
2022-12-13T05:54:45.906Z,5.95
2022-12-13T05:57:12.252Z,5.90
2022-12-13T05:59:38.710Z,6.00
2022-12-13T06:02:05.259Z,6.40
2022-12-13T06:04:31.756Z,5.90
2022-12-13T06:06:58.111Z,6.88
2022-12-13T06:09:24.408Z,5.70
2022-12-13T06:11:50.921Z,6.22
2022-12-13T06:14:22.410Z,6.07
2022-12-13T06:16:49.437Z,5.95
2022-12-13T06:19:15.797Z,6.80
2022-12-13T06:21:46.238Z,6.38
2022-12-13T06:24:16.888Z,6.78
2022-12-13T06:26:45.165Z,6.32
2022-12-13T06:29:13.302Z,6.88
2022-12-13T06:32:01.928Z,6.25
2022-12-13T06:34:33.995Z,6.60
2022-12-13T06:37:01.494Z,6.32
2022-12-13T06:39:32.456Z,7.10
2022-12-13T06:42:00.419Z,7.10
2022-12-13T06:44:26.747Z,6.80
2022-12-13T06:46:53.071Z,7.03
2022-12-13T06:49:39.344Z,6.85
2022-12-13T06:52:05.953Z,7.40
2022-12-13T06:54:33.011Z,7.07
2022-12-13T06:56:59.719Z,6.35
2022-12-13T06:59:26.044Z,7.05
2022-12-13T07:01:52.458Z,7.60
2022-12-13T07:04:28.910Z,6.85
2022-12-13T07:07:01.102Z,6.60
2022-12-13T07:09:32.161Z,6.15
2022-12-13T07:11:59.255Z,7.03
2022-12-13T07:14:25.726Z,6.05
2022-12-13T07:16:52.048Z,7.03
2022-12-13T07:19:23.733Z,6.95
2022-12-13T07:21:50.912Z,6.45
2022-12-13T07:24:17.272Z,6.40
2022-12-13T07:26:43.618Z,6.72
2022-12-13T07:29:09.967Z,6.32
2022-12-13T07:31:39.136Z,6.45
2022-12-13T07:34:05.517Z,6.25
2022-12-13T07:36:31.998Z,7.50
2022-12-13T07:38:58.709Z,7.38
2022-12-13T07:41:25.878Z,7.07
2022-12-13T07:43:55.267Z,6.70
2022-12-13T07:46:25.964Z,6.95
2022-12-13T07:49:01.729Z,6.15
2022-12-13T07:51:28.491Z,7.00
2022-12-13T07:53:54.831Z,6.22
2022-12-13T07:56:21.178Z,6.95
2022-12-13T07:58:47.543Z,6.40
2022-12-13T08:01:14.270Z,6.45
2022-12-13T08:03:40.645Z,6.82
2022-12-13T08:06:08.844Z,6.03
2022-12-13T08:08:35.748Z,6.82
2022-12-13T08:11:06.223Z,7.30
2022-12-13T08:13:33.003Z,6.40
2022-12-13T08:16:00.473Z,7.03
2022-12-13T08:18:27.612Z,7.05
2022-12-13T08:20:57.374Z,6.68
2022-12-13T08:23:24.394Z,6.85
2022-12-13T08:25:51.940Z,6.50
2022-12-13T08:28:18.437Z,6.35
2022-12-13T08:30:44.776Z,6.78
2022-12-13T08:33:11.116Z,6.55
2022-12-13T08:35:37.539Z,6.63
2022-12-13T08:38:04.014Z,7.28
2022-12-13T08:40:30.346Z,6.72
2022-12-13T08:42:56.683Z,6.57
2022-12-13T08:45:24.189Z,7.07
2022-12-13T08:47:50.677Z,7.32
2022-12-13T08:50:17.026Z,7.45
2022-12-13T08:52:44.877Z,6.93
2022-12-13T08:55:15.158Z,6.95
2022-12-13T08:57:42.643Z,7.60
2022-12-13T09:00:11.703Z,7.43
2022-12-13T09:02:39.010Z,8.38
2022-12-13T09:05:07.172Z,7.13
2022-12-13T09:07:35.738Z,7.32
2022-12-13T09:10:25.666Z,7.30
2022-12-13T09:12:48.854Z,6.65
2022-12-13T09:15:22.267Z,7.90
2022-12-13T09:17:52.000Z,8.10
2022-12-13T09:20:29.759Z,7.68
2022-12-13T09:23:01.331Z,8.25
2022-12-13T09:25:28.574Z,9.25
2022-12-13T09:28:04.563Z,9.93
2022-12-13T09:30:31.352Z,10.63
2022-12-13T09:32:58.030Z,11.18
2022-12-13T09:35:24.776Z,13.20
2022-12-13T09:37:51.200Z,14.07
2022-12-13T09:40:25.789Z,14.13
2022-12-13T09:43:12.499Z,14.85
2022-12-13T09:45:44.005Z,15.18
2022-12-13T09:48:13.594Z,15.23
2022-12-13T09:50:46.368Z,15.90
2022-12-13T09:53:21.505Z,17.13
2022-12-13T09:58:19.090Z,15.65
2022-12-13T10:00:47.128Z,16.05
2022-12-13T10:03:14.572Z,16.70
2022-12-13T10:05:43.843Z,15.80
2022-12-13T10:08:32.353Z,15.73
2022-12-13T10:10:58.908Z,16.00
2022-12-13T10:13:25.683Z,16.17
2022-12-13T10:15:54.941Z,14.27
2022-12-13T10:18:26.957Z,13.35
2022-12-13T10:20:53.693Z,13.40
2022-12-13T10:26:14.829Z,12.80
2022-12-13T10:29:00.895Z,13.02
2022-12-13T10:31:27.350Z,13.32
2022-12-13T10:33:55.501Z,12.82
2022-12-13T10:36:35.763Z,11.95
2022-12-13T10:39:03.003Z,12.18
2022-12-13T10:41:34.724Z,11.90
2022-12-13T10:44:13.597Z,11.80
2022-12-13T10:46:40.602Z,11.60
2022-12-13T10:49:16.257Z,11.05
2022-12-13T10:51:42.759Z,11.38
2022-12-13T10:54:15.977Z,11.35
2022-12-13T10:56:46.725Z,10.68
2022-12-13T10:59:20.893Z,10.48
2022-12-13T11:01:47.230Z,11.48
2022-12-13T11:04:27.552Z,10.55
2022-12-13T11:06:54.771Z,10.07
2022-12-13T11:09:38.477Z,9.30
2022-12-13T11:12:16.343Z,9.43
2022-12-13T11:14:52.493Z,9.25
2022-12-13T11:17:21.938Z,9.32
2022-12-13T11:19:50.462Z,9.65
2022-12-13T11:22:21.061Z,9.45
2022-12-13T11:24:55.171Z,9.45
2022-12-13T11:27:36.863Z,9.63
2022-12-13T11:30:09.724Z,9.77
2022-12-13T11:32:59.464Z,8.95
2022-12-13T11:35:52.458Z,8.52
2022-12-13T11:38:25.757Z,9.02
2022-12-13T11:41:00.673Z,8.93
2022-12-13T11:43:59.190Z,8.23
2022-12-13T11:46:34.941Z,8.38
2022-12-13T11:49:09.747Z,8.23
2022-12-13T11:51:40.418Z,8.15
2022-12-13T11:54:10.945Z,7.65
2022-12-13T11:56:39.983Z,7.43
2022-12-13T11:59:26.548Z,7.75
2022-12-13T12:01:57.122Z,7.43
2022-12-13T12:04:35.702Z,7.68
2022-12-13T12:07:31.056Z,7.35
2022-12-13T12:09:59.099Z,7.22
2022-12-13T12:12:25.455Z,7.72
2022-12-13T12:15:27.168Z,7.47
2022-12-13T12:17:54.542Z,7.30
2022-12-13T12:20:24.847Z,7.28
2022-12-13T12:22:58.051Z,7.03
2022-12-13T12:25:37.045Z,7.00
2022-12-13T12:28:27.823Z,6.95
2022-12-13T12:31:20.132Z,6.90
2022-12-13T12:33:55.869Z,7.10
2022-12-13T12:36:22.189Z,6.60
2022-12-13T12:39:03.531Z,6.55
2022-12-13T12:41:29.903Z,6.53
2022-12-13T12:44:04.008Z,6.78
2022-12-13T12:46:52.404Z,6.55
2022-12-13T12:49:29.275Z,6.55
2022-12-13T12:52:14.901Z,6.15
2022-12-13T12:54:47.811Z,6.60
2022-12-13T12:57:30.968Z,6.13
2022-12-13T13:00:03.937Z,6.82
2022-12-13T13:02:30.311Z,6.30
2022-12-13T13:04:59.256Z,6.18
2022-12-13T13:07:31.898Z,6.22
2022-12-13T13:10:16.328Z,5.70
2022-12-13T13:12:52.958Z,6.45
2022-12-13T13:15:39.125Z,6.72
2022-12-13T13:18:25.754Z,5.95
2022-12-13T13:21:11.194Z,6.53
2022-12-13T13:23:41.195Z,6.00
2022-12-13T13:26:25.996Z,5.75
2022-12-13T13:28:54.592Z,5.78
2022-12-13T13:31:20.993Z,5.88
2022-12-13T13:33:50.986Z,5.78
2022-12-13T13:36:47.250Z,6.20
2022-12-13T13:39:19.186Z,5.50
2022-12-13T13:41:51.732Z,5.93
2022-12-13T13:44:35.045Z,5.80
2022-12-13T13:47:17.739Z,5.65
2022-12-13T13:50:02.773Z,5.65
2022-12-13T13:52:39.553Z,5.45
2022-12-13T13:55:14.810Z,5.97
2022-12-13T13:58:09.831Z,5.43
2022-12-13T14:00:39.961Z,5.72
2022-12-13T14:03:33.338Z,5.53
2022-12-13T14:06:19.679Z,5.60
2022-12-13T14:08:51.522Z,5.47
2022-12-13T14:11:17.907Z,5.13
2022-12-13T14:13:45.280Z,5.68
2022-12-13T14:16:24.678Z,5.80
2022-12-13T14:18:58.130Z,5.85
2022-12-13T14:21:36.697Z,5.15
2022-12-13T14:24:12.200Z,4.88
2022-12-13T14:26:46.413Z,5.53
2022-12-13T14:29:23.445Z,5.38
2022-12-13T14:31:49.963Z,5.50
2022-12-13T14:34:27.148Z,5.03
2022-12-13T14:36:56.678Z,5.50
2022-12-13T14:39:24.950Z,5.63
2022-12-13T14:41:56.615Z,5.00
2022-12-13T14:44:32.109Z,5.10
2022-12-13T14:47:01.575Z,5.28
2022-12-13T14:49:29.407Z,4.90
2022-12-13T14:52:01.637Z,4.68
2022-12-13T14:54:31.129Z,5.18
2022-12-13T14:57:01.774Z,4.90
2022-12-13T14:59:28.772Z,5.18
2022-12-13T15:01:56.418Z,5.20
2022-12-13T15:06:54.722Z,4.90
2022-12-13T15:09:21.094Z,4.47
2022-12-13T15:11:47.654Z,4.90
2022-12-13T15:14:16.115Z,4.82
2022-12-13T15:16:46.823Z,4.60
2022-12-13T15:19:32.078Z,4.65
2022-12-13T15:22:18.666Z,4.90
2022-12-13T15:24:49.323Z,4.53
2022-12-13T15:27:22.714Z,4.35
2022-12-13T15:29:49.799Z,4.40
2022-12-13T15:32:19.082Z,4.60
2022-12-13T15:34:47.466Z,4.53
2022-12-13T15:37:29.451Z,4.30
2022-12-13T15:39:59.046Z,4.82
2022-12-13T15:42:32.147Z,4.38
2022-12-13T15:44:59.993Z,4.20
2022-12-13T15:47:28.615Z,4.55
2022-12-13T15:49:57.480Z,4.50
2022-12-13T15:52:29.406Z,4.65
2022-12-13T15:55:01.814Z,5.45
2022-12-13T15:57:30.228Z,5.38
2022-12-13T16:00:15.164Z,5.90
2022-12-13T16:02:52.747Z,5.63
2022-12-13T16:05:23.481Z,5.57
2022-12-13T16:07:56.129Z,5.45
2022-12-13T16:10:23.323Z,5.60
2022-12-13T16:12:51.934Z,6.03
2022-12-13T16:15:30.498Z,6.60
2022-12-13T16:18:07.300Z,7.35
2022-12-13T16:20:33.930Z,7.97
2022-12-13T16:23:00.443Z,7.93
2022-12-13T16:25:35.397Z,9.13
2022-12-13T16:28:01.883Z,9.02
2022-12-13T16:30:29.153Z,8.80
2022-12-13T16:33:18.192Z,8.60
2022-12-13T16:35:42.243Z,8.43
2022-12-13T16:38:12.306Z,8.40
2022-12-13T16:40:54.001Z,8.48
2022-12-13T16:43:22.272Z,8.63
2022-12-13T16:45:51.462Z,8.13
2022-12-13T16:48:18.642Z,8.13
2022-12-13T16:50:46.293Z,8.57
2022-12-13T16:53:17.268Z,7.82
2022-12-13T16:55:44.347Z,8.02
2022-12-13T16:58:25.857Z,7.50
2022-12-13T17:00:52.433Z,7.38
2022-12-13T17:03:25.896Z,7.90
2022-12-13T17:05:58.948Z,7.63
2022-12-13T17:08:25.470Z,7.13
2022-12-13T17:10:58.089Z,7.00
2022-12-13T17:13:25.238Z,7.20
2022-12-13T17:15:59.797Z,7.53
2022-12-13T17:18:26.721Z,7.13
2022-12-13T17:20:58.311Z,6.90
2022-12-13T17:23:25.222Z,7.00
2022-12-13T17:25:58.389Z,6.70
2022-12-13T17:30:54.585Z,6.70
2022-12-13T17:33:21.570Z,6.40
2022-12-13T17:35:47.885Z,6.43
2022-12-13T17:38:14.241Z,7.00
2022-12-13T17:40:40.599Z,6.90
2022-12-13T17:43:07.337Z,6.43
2022-12-13T17:45:33.800Z,6.57
2022-12-13T17:48:00.151Z,6.97
2022-12-13T17:50:27.997Z,6.32
2022-12-13T17:52:54.376Z,5.93
2022-12-13T17:55:20.716Z,6.28
2022-12-13T17:57:47.197Z,6.75
2022-12-13T18:00:14.024Z,6.15
2022-12-13T18:02:40.543Z,6.18
2022-12-13T18:05:07.390Z,6.00
2022-12-13T18:07:33.806Z,5.97
2022-12-13T18:10:00.248Z,6.43
2022-12-13T18:12:26.733Z,5.90
2022-12-13T18:14:54.141Z,6.70
2022-12-13T18:19:47.072Z,5.55
2022-12-13T18:22:13.409Z,6.10
2022-12-13T18:24:39.713Z,6.13
2022-12-13T18:27:06.058Z,6.03
2022-12-13T18:29:32.499Z,6.13
2022-12-13T18:31:58.857Z,5.97
2022-12-13T18:34:25.795Z,6.03
2022-12-13T18:36:52.151Z,6.40
2022-12-13T18:39:18.633Z,6.13
2022-12-13T18:41:44.958Z,5.85
2022-12-13T18:44:13.476Z,6.15
2022-12-13T18:46:44.730Z,5.88
2022-12-13T18:49:12.882Z,6.15
2022-12-13T18:51:39.262Z,5.80
2022-12-13T18:54:05.716Z,5.55
2022-12-13T18:56:32.098Z,6.20
2022-12-13T18:58:59.401Z,5.93
2022-12-13T19:01:27.830Z,5.15
2022-12-13T19:03:54.861Z,5.95
2022-12-13T19:06:22.994Z,5.90
2022-12-13T19:08:53.328Z,5.10
2022-12-13T19:11:20.379Z,5.97
2022-12-13T19:13:46.991Z,5.80
2022-12-13T19:16:14.587Z,5.75
2022-12-13T19:18:41.085Z,5.22
2022-12-13T19:21:08.256Z,5.15
2022-12-13T19:23:34.906Z,6.80
2022-12-13T19:26:08.398Z,5.88
2022-12-13T19:31:04.848Z,6.00
2022-12-13T19:33:31.535Z,6.00
2022-12-13T19:35:57.978Z,6.20
2022-12-13T19:38:24.386Z,6.25
2022-12-13T19:40:50.810Z,6.18
2022-12-13T19:43:17.136Z,7.03
2022-12-13T19:45:44.890Z,6.63
2022-12-13T19:48:12.822Z,6.07
2022-12-13T19:50:39.849Z,6.38
2022-12-13T19:53:07.102Z,5.95
2022-12-13T19:55:34.037Z,6.38
2022-12-13T19:58:00.531Z,6.60
2022-12-13T20:00:27.176Z,6.07
2022-12-13T20:02:53.868Z,6.30
2022-12-13T20:05:20.282Z,6.50
2022-12-13T20:07:46.675Z,6.10
2022-12-13T20:10:15.016Z,5.95
2022-12-13T20:12:41.422Z,6.10
2022-12-13T20:15:08.459Z,6.32
2022-12-13T20:17:35.212Z,6.18
2022-12-13T20:20:01.682Z,6.30
2022-12-13T20:22:28.611Z,6.00
2022-12-13T20:24:54.969Z,6.10
2022-12-13T20:27:21.382Z,6.00
2022-12-13T20:29:48.690Z,6.30
2022-12-13T20:32:15.109Z,6.47
2022-12-13T20:34:41.547Z,5.63
2022-12-13T20:37:07.909Z,6.00
2022-12-13T20:39:34.840Z,6.18
2022-12-13T20:42:01.229Z,6.03
2022-12-13T20:44:27.625Z,6.07
2022-12-13T20:46:54.026Z,6.13
2022-12-13T20:49:20.509Z,6.43
2022-12-13T20:51:46.882Z,5.85
2022-12-13T20:54:13.213Z,6.47
2022-12-13T20:56:39.824Z,6.20
2022-12-13T20:59:07.264Z,6.15
2022-12-13T21:04:02.499Z,5.53
2022-12-13T21:06:29.835Z,5.85
2022-12-13T21:08:59.837Z,6.18
2022-12-13T21:11:30.470Z,6.05
2022-12-13T21:14:10.220Z,6.03
2022-12-13T21:16:44.564Z,6.20
2022-12-13T21:19:15.029Z,6.25
2022-12-13T21:21:41.403Z,6.22
2022-12-13T21:24:08.435Z,5.70
2022-12-13T21:26:36.410Z,5.88
2022-12-13T21:29:04.687Z,5.85
2022-12-13T21:31:31.088Z,5.40
2022-12-13T21:34:00.094Z,6.15
2022-12-13T21:36:27.470Z,6.13
2022-12-13T21:38:57.936Z,6.30
2022-12-13T21:41:24.763Z,6.07
2022-12-13T21:43:51.244Z,5.93
2022-12-13T21:46:18.582Z,5.68
2022-12-13T21:48:45.426Z,5.72
2022-12-13T21:51:13.080Z,6.70
2022-12-13T21:53:39.836Z,5.65
2022-12-13T21:56:25.438Z,5.65
2022-12-13T22:02:01.752Z,5.70
2022-12-13T22:04:28.572Z,5.35
2022-12-13T22:06:54.970Z,5.50
2022-12-13T22:09:21.360Z,5.68
2022-12-13T22:11:47.716Z,5.20
2022-12-13T22:14:14.122Z,5.18
2022-12-13T22:16:40.504Z,4.90
2022-12-13T22:19:06.903Z,5.40
2022-12-13T22:21:33.445Z,5.53
2022-12-13T22:23:59.802Z,5.70
2022-12-13T22:26:26.180Z,5.40
2022-12-13T22:28:52.819Z,4.95
2022-12-13T22:31:19.390Z,5.25
2022-12-13T22:33:45.833Z,4.80
2022-12-13T22:36:12.202Z,5.00
2022-12-13T22:38:38.525Z,5.10
2022-12-13T22:41:05.139Z,5.55
2022-12-13T22:43:35.049Z,4.50
2022-12-13T22:46:03.724Z,4.70
2022-12-13T22:48:33.218Z,4.85
2022-12-13T22:51:10.819Z,4.40
2022-12-13T22:53:37.161Z,4.70
2022-12-13T22:56:04.814Z,4.55
2022-12-13T22:58:32.202Z,4.38
2022-12-13T23:00:58.993Z,4.65
2022-12-13T23:03:25.646Z,4.60
2022-12-13T23:05:52.495Z,4.70
2022-12-13T23:08:18.838Z,4.25
2022-12-13T23:11:03.777Z,4.18
2022-12-13T23:13:30.138Z,4.32
2022-12-13T23:15:56.490Z,4.90
2022-12-13T23:18:22.823Z,4.20
2022-12-13T23:20:49.322Z,4.53
2022-12-13T23:23:15.718Z,4.13
2022-12-13T23:25:42.045Z,3.92
2022-12-13T23:28:08.398Z,4.50
2022-12-13T23:30:36.125Z,4.25
2022-12-13T23:33:02.586Z,4.32
2022-12-13T23:35:29.458Z,4.80
2022-12-13T23:37:55.897Z,4.68
2022-12-13T23:40:22.283Z,3.78
2022-12-13T23:42:49.304Z,3.85
2022-12-13T23:45:15.659Z,4.30
2022-12-13T23:47:42.001Z,4.03
2022-12-13T23:50:08.564Z,3.95
2022-12-13T23:52:34.906Z,3.90
2022-12-13T23:55:01.207Z,4.30
2022-12-13T23:57:27.512Z,4.03
2022-12-13T23:59:53.867Z,4.03
